createdAt,value
2022-09-11T00:00:52.974Z,98649.50
2022-09-11T00:01:55.538Z,98646.03
2022-09-11T00:02:57.448Z,98650.75
2022-09-11T00:04:00.008Z,98653.44
2022-09-11T00:05:01.753Z,98650.19
2022-09-11T00:06:07.354Z,98649.94
2022-09-11T00:07:09.360Z,98648.34
2022-09-11T00:08:16.710Z,98640.91
2022-09-11T00:09:18.511Z,98646.22
2022-09-11T00:10:20.210Z,98641.13
2022-09-11T00:11:22.655Z,98643.56
2022-09-11T00:12:24.457Z,98639.63
2022-09-11T00:13:26.160Z,98648.69
2022-09-11T00:14:29.606Z,98639.06
2022-09-11T00:15:36.800Z,98641.50
2022-09-11T00:16:42.990Z,98643.34
2022-09-11T00:17:44.689Z,98636.16
2022-09-11T00:18:46.814Z,98635.56
2022-09-11T00:19:48.550Z,98640.09
2022-09-11T00:20:57.033Z,98640.91
2022-09-11T00:21:58.780Z,98644.63
2022-09-11T00:23:04.937Z,98637.41
2022-09-11T00:24:09.797Z,98634.75
2022-09-11T00:25:11.535Z,98635.81
2022-09-11T00:26:13.271Z,98637.91
2022-09-11T00:27:15.558Z,98638.47
2022-09-11T00:28:21.756Z,98639.53
2022-09-11T00:29:23.655Z,98631.75
2022-09-11T00:30:25.404Z,98647.53
2022-09-11T00:31:30.590Z,98644.84
2022-09-11T00:32:33.199Z,98634.44
2022-09-11T00:33:36.914Z,98640.56
2022-09-11T00:34:39.144Z,98648.34
2022-09-11T00:35:41.947Z,98643.25
2022-09-11T00:36:44.145Z,98640.81
2022-09-11T00:37:45.865Z,98641.63
2022-09-11T00:38:49.331Z,98640.56
2022-09-11T00:39:54.436Z,98645.09
2022-09-11T00:40:59.971Z,98639.75
2022-09-11T00:42:02.299Z,98645.09
2022-09-11T00:43:09.897Z,98640.34
2022-09-11T00:44:16.780Z,98637.66
2022-09-11T00:45:28.350Z,98643.81
2022-09-11T00:46:55.888Z,98646.59
2022-09-11T00:48:00.042Z,98635.81
2022-09-11T00:49:14.422Z,98637.91
2022-09-11T00:50:22.205Z,98631.75
2022-09-11T00:51:29.415Z,98635.25
2022-09-11T00:52:38.748Z,98641.38
2022-09-11T00:53:40.680Z,98641.63
2022-09-11T00:55:08.813Z,98645.44
2022-09-11T00:56:11.507Z,98648.00
2022-09-11T00:57:13.687Z,98638.38
2022-09-11T00:58:21.973Z,98640.25
2022-09-11T00:59:26.912Z,98643.97
2022-09-11T01:00:29.084Z,98640.50
2022-09-11T01:01:31.066Z,98643.16
2022-09-11T01:02:37.041Z,98643.16
2022-09-11T01:03:38.839Z,98639.44
2022-09-11T01:04:40.612Z,98639.44
2022-09-11T01:05:43.649Z,98646.41
2022-09-11T01:06:46.648Z,98637.59
2022-09-11T01:07:54.168Z,98635.72
2022-09-11T01:08:55.884Z,98642.09
2022-09-11T01:09:59.170Z,98635.97
2022-09-11T01:11:39.980Z,98630.47
2022-09-11T01:13:12.451Z,98633.38
2022-09-11T01:14:32.422Z,98629.59
2022-09-11T01:15:57.193Z,98634.09
2022-09-11T01:18:02.162Z,98645.09
2022-09-11T01:19:34.270Z,98638.63
2022-09-11T01:21:05.968Z,98641.53
2022-09-11T01:22:51.640Z,98638.88
2022-09-11T01:24:45.599Z,98632.72
2022-09-11T01:26:18.846Z,98640.94
2022-09-11T01:27:52.020Z,98643.28
2022-09-11T01:29:09.537Z,98645.97
2022-09-11T01:30:13.159Z,98642.97
2022-09-11T01:31:22.596Z,98644.81
2022-09-11T01:32:41.334Z,98640.28
2022-09-11T01:33:55.044Z,98642.16
2022-09-11T01:35:33.858Z,98651.06
2022-09-11T01:36:53.657Z,98649.44
2022-09-11T01:38:03.890Z,98647.25
2022-09-11T01:39:05.786Z,98647.50
2022-09-11T01:40:24.114Z,98653.16
2022-09-11T01:41:44.879Z,98648.88
2022-09-11T01:42:54.393Z,98648.31
2022-09-11T01:44:18.557Z,98650.47
2022-09-11T01:45:24.165Z,98649.91
2022-09-11T01:46:28.611Z,98650.41
2022-09-11T01:47:34.895Z,98653.63
2022-09-11T01:48:48.598Z,98651.53
2022-09-11T01:50:07.138Z,98647.25
2022-09-11T01:51:16.298Z,98644.81
2022-09-11T01:52:32.056Z,98649.69
2022-09-11T01:53:45.881Z,98648.88
2022-09-11T01:54:59.731Z,98646.19
2022-09-11T01:56:20.760Z,98644.91
2022-09-11T01:57:36.985Z,98644.34
2022-09-11T01:58:42.003Z,98644.59
2022-09-11T01:59:53.043Z,98646.19
2022-09-11T02:01:04.534Z,98645.16
2022-09-11T02:02:11.871Z,98643.22
2022-09-11T02:03:39.486Z,98648.38
2022-09-11T02:05:01.217Z,98646.19
2022-09-11T02:06:14.447Z,98651.22
2022-09-11T02:07:24.919Z,98650.41
2022-09-11T02:08:32.923Z,98653.06
2022-09-11T02:09:46.836Z,98660.81
2022-09-11T02:11:07.097Z,98655.00
2022-09-11T02:12:15.983Z,98658.59
2022-09-11T02:14:21.143Z,98655.81
2022-09-11T02:15:33.279Z,98656.75
2022-09-11T02:16:53.410Z,98655.72
2022-09-11T02:18:06.181Z,98662.53
2022-09-11T02:19:16.966Z,98658.00
2022-09-11T02:20:20.899Z,98653.72
2022-09-11T02:21:22.818Z,98652.09
2022-09-11T02:22:25.051Z,98658.25
2022-09-11T02:23:26.765Z,98661.97
2022-09-11T02:24:28.902Z,98656.41
2022-09-11T02:25:30.611Z,98651.88
2022-09-11T02:26:39.721Z,98658.00
2022-09-11T02:27:41.651Z,98659.06
2022-09-11T02:28:43.525Z,98657.69
2022-09-11T02:29:45.801Z,98654.44
2022-09-11T02:30:47.875Z,98649.44
2022-09-11T02:31:52.071Z,98659.06
2022-09-11T02:32:55.955Z,98661.16
2022-09-11T02:33:58.052Z,98661.41
2022-09-11T02:35:00.804Z,98657.69
2022-09-11T02:36:17.045Z,98659.06
2022-09-11T02:38:05.235Z,98659.63
2022-09-11T02:39:40.032Z,98657.56
2022-09-11T02:41:13.767Z,98655.13
2022-09-11T02:42:47.720Z,98665.81
2022-09-11T02:44:06.915Z,98663.59
2022-09-11T02:45:30.422Z,98666.59
2022-09-11T02:47:26.083Z,98666.97
2022-09-11T02:48:39.408Z,98667.06
2022-09-11T02:50:07.592Z,98666.00
2022-09-11T02:51:36.917Z,98666.00
2022-09-11T02:52:52.796Z,98670.22
2022-09-11T02:54:29.044Z,98680.63
2022-09-11T02:55:52.169Z,98673.94
2022-09-11T02:57:17.834Z,98669.97
2022-09-11T02:58:21.820Z,98667.78
2022-09-11T02:59:40.719Z,98669.16
2022-09-11T03:00:42.672Z,98670.69
2022-09-11T03:01:55.030Z,98673.94
2022-09-11T03:02:57.541Z,98666.72
2022-09-11T03:03:59.304Z,98679.25
2022-09-11T03:05:01.436Z,98675.78
2022-09-11T03:06:03.504Z,98670.44
2022-09-11T03:07:05.890Z,98677.63
2022-09-11T03:08:08.095Z,98680.63
2022-09-11T03:09:10.644Z,98674.50
2022-09-11T03:10:12.417Z,98672.06
2022-09-11T03:11:17.693Z,98681.69
2022-09-11T03:12:19.484Z,98667.31
2022-09-11T03:13:21.216Z,98674.72
2022-09-11T03:14:22.955Z,98680.63
2022-09-11T03:15:24.659Z,98675.31
2022-09-11T03:16:26.437Z,98677.97
2022-09-11T03:17:28.438Z,98674.25
2022-09-11T03:18:30.654Z,98675.31
2022-09-11T03:19:32.412Z,98676.91
2022-09-11T03:20:34.114Z,98674.00
2022-09-11T03:21:36.838Z,98669.72
2022-09-11T03:22:39.671Z,98667.31
2022-09-11T03:23:41.420Z,98670.53
2022-09-11T03:24:43.269Z,98666.81
2022-09-11T03:25:44.977Z,98674.63
2022-09-11T03:26:46.788Z,98675.41
2022-09-11T03:27:48.513Z,98673.81
2022-09-11T03:28:50.466Z,98673.81
2022-09-11T03:29:52.210Z,98680.75
2022-09-11T03:30:53.995Z,98675.41
2022-09-11T03:31:57.277Z,98675.41
2022-09-11T03:33:00.571Z,98678.09
2022-09-11T03:34:02.297Z,98676.22
2022-09-11T03:35:04.288Z,98670.09
2022-09-11T03:36:06.786Z,98669.50
2022-09-11T03:37:08.507Z,98676.47
2022-09-11T03:38:11.833Z,98672.97
2022-09-11T03:39:13.533Z,98673.19
2022-09-11T03:40:15.327Z,98680.16
2022-09-11T03:41:17.091Z,98675.06
2022-09-11T03:42:18.787Z,98676.91
2022-09-11T03:43:21.173Z,98680.63
2022-09-11T03:44:23.054Z,98674.50
2022-09-11T03:45:24.943Z,98687.59
2022-09-11T03:46:27.785Z,98686.53
2022-09-11T03:47:29.643Z,98688.16
2022-09-11T03:48:32.634Z,98687.34
2022-09-11T03:49:34.365Z,98682.81
2022-09-11T03:50:36.068Z,98694.28
2022-09-11T03:51:37.834Z,98691.88
2022-09-11T03:52:39.861Z,98692.09
2022-09-11T03:53:43.041Z,98691.63
2022-09-11T03:54:44.860Z,98698.81
2022-09-11T03:55:49.957Z,98695.13
2022-09-11T03:56:51.665Z,98695.94
2022-09-11T03:57:53.372Z,98707.41
2022-09-11T03:59:02.528Z,98695.13
2022-09-11T04:00:05.689Z,98700.22
2022-09-11T04:01:16.204Z,98708.03
2022-09-11T04:02:18.837Z,98702.09
2022-09-11T04:03:20.588Z,98700.22
2022-09-11T04:04:22.684Z,98702.09
2022-09-11T04:05:25.286Z,98705.56
2022-09-11T04:06:27.344Z,98711.94
2022-09-11T04:07:31.433Z,98712.75
2022-09-11T04:08:33.852Z,98707.41
2022-09-11T04:09:35.845Z,98709.28
2022-09-11T04:10:38.194Z,98703.72
2022-09-11T04:11:40.279Z,98707.41
2022-09-11T04:12:41.968Z,98701.88
2022-09-11T04:13:44.662Z,98709.88
2022-09-11T04:14:46.350Z,98709.63
2022-09-11T04:15:48.092Z,98712.53
2022-09-11T04:16:49.969Z,98710.69
2022-09-11T04:17:51.713Z,98716.03
2022-09-11T04:18:54.198Z,98708.84
2022-09-11T04:19:55.960Z,98706.97
2022-09-11T04:20:58.364Z,98716.03
2022-09-11T04:22:00.214Z,98710.69
2022-09-11T04:23:02.856Z,98713.13
2022-09-11T04:24:05.180Z,98714.97
2022-09-11T04:25:07.705Z,98724.59
2022-09-11T04:26:16.532Z,98719.03
2022-09-11T04:27:18.956Z,98709.41
2022-09-11T04:28:20.771Z,98714.72
2022-09-11T04:29:22.505Z,98717.97
2022-09-11T04:30:24.261Z,98713.69
2022-09-11T04:31:30.333Z,98719.25
2022-09-11T04:32:32.164Z,98722.75
2022-09-11T04:33:36.163Z,98725.66
2022-09-11T04:34:37.985Z,98724.59
2022-09-11T04:35:40.316Z,98729.94
2022-09-11T04:36:42.065Z,98733.16
2022-09-11T04:37:43.766Z,98728.63
2022-09-11T04:38:47.687Z,98724.13
2022-09-11T04:39:49.432Z,98732.13
2022-09-11T04:40:51.518Z,98727.03
2022-09-11T04:41:54.398Z,98732.34
2022-09-11T04:42:56.085Z,98732.34
2022-09-11T04:44:04.880Z,98732.34
2022-09-11T04:45:07.870Z,98741.72
2022-09-11T04:46:17.764Z,98736.41
2022-09-11T04:47:19.449Z,98734.78
2022-09-11T04:48:21.141Z,98740.13
2022-09-11T04:49:25.954Z,98747.06
2022-09-11T04:50:29.116Z,98741.50
2022-09-11T04:51:36.417Z,98738.03
2022-09-11T04:52:39.146Z,98752.16
2022-09-11T04:53:41.866Z,98743.34
2022-09-11T04:54:43.921Z,98753.78
2022-09-11T04:55:45.962Z,98748.69
2022-09-11T04:56:48.806Z,98752.97
2022-09-11T04:57:50.581Z,98748.69
2022-09-11T04:59:13.166Z,98762.38
2022-09-11T05:00:16.001Z,98753.56
2022-09-11T05:01:17.847Z,98759.94
2022-09-11T05:02:19.921Z,98761.78
2022-09-11T05:03:21.676Z,98752.97
2022-09-11T05:04:26.179Z,98751.34
2022-09-11T05:05:28.303Z,98766.91
2022-09-11T05:06:30.360Z,98762.59
2022-09-11T05:07:32.288Z,98752.97
2022-09-11T05:08:34.555Z,98761.22
2022-09-11T05:09:36.281Z,98759.59
2022-09-11T05:10:38.850Z,98768.97
2022-09-11T05:11:40.954Z,98774.09
2022-09-11T05:12:42.639Z,98769.56
2022-09-11T05:13:45.023Z,98767.94
2022-09-11T05:14:46.985Z,98770.38
2022-09-11T05:15:48.674Z,98775.72
2022-09-11T05:16:52.515Z,98765.25
2022-09-11T05:17:54.195Z,98764.25
2022-09-11T05:18:57.651Z,98771.19
2022-09-11T05:19:59.352Z,98768.53
2022-09-11T05:21:03.353Z,98775.72
2022-09-11T05:22:05.106Z,98772.56
2022-09-11T05:23:07.304Z,98775.47
2022-09-11T05:24:09.073Z,98772.00
2022-09-11T05:25:11.496Z,98770.16
2022-09-11T05:26:19.296Z,98778.97
2022-09-11T05:27:21.031Z,98780.00
2022-09-11T05:28:22.769Z,98783.50
2022-09-11T05:29:32.217Z,98773.63
2022-09-11T05:30:34.520Z,98783.50
2022-09-11T05:31:37.215Z,98780.00
2022-09-11T05:32:39.082Z,98784.28
2022-09-11T05:33:41.439Z,98783.50
2022-09-11T05:34:43.577Z,98783.25
2022-09-11T05:35:46.567Z,98785.91
2022-09-11T05:36:48.617Z,98784.28
2022-09-11T05:37:50.430Z,98789.38
2022-09-11T05:38:52.874Z,98787.53
2022-09-11T05:39:54.857Z,98791.81
2022-09-11T05:40:56.660Z,98789.16
2022-09-11T05:41:58.471Z,98793.44
2022-09-11T05:43:00.165Z,98799.59
2022-09-11T05:44:02.263Z,98796.91
2022-09-11T05:45:04.825Z,98796.91
2022-09-11T05:46:11.151Z,98794.81
2022-09-11T05:47:14.199Z,98799.13
2022-09-11T05:48:16.396Z,98797.50
2022-09-11T05:49:19.311Z,98800.97
2022-09-11T05:50:21.649Z,98806.09
2022-09-11T05:51:23.770Z,98804.47
2022-09-11T05:52:25.620Z,98809.81
2022-09-11T05:53:32.026Z,98822.09
2022-09-11T05:54:33.872Z,98815.16
2022-09-11T05:55:35.608Z,98808.53
2022-09-11T05:56:37.311Z,98812.25
2022-09-11T05:57:39.016Z,98812.00
2022-09-11T05:58:40.806Z,98817.34
2022-09-11T05:59:42.573Z,98813.84
2022-09-11T06:00:48.495Z,98817.56
2022-09-11T06:01:50.384Z,98819.19
2022-09-11T06:02:54.613Z,98821.06
2022-09-11T06:03:57.899Z,98822.91
2022-09-11T06:04:59.737Z,98825.34
2022-09-11T06:06:03.558Z,98826.16
2022-09-11T06:07:05.353Z,98831.72
2022-09-11T06:08:11.768Z,98827.78
2022-09-11T06:09:13.962Z,98828.00
2022-09-11T06:10:15.759Z,98833.09
2022-09-11T06:11:20.155Z,98828.56
2022-09-11T06:12:21.895Z,98831.81
2022-09-11T06:13:26.407Z,98833.91
2022-09-11T06:14:28.133Z,98838.19
2022-09-11T06:15:46.256Z,98838.19
2022-09-11T06:16:48.853Z,98836.34
2022-09-11T06:17:50.665Z,98847.03
2022-09-11T06:18:54.285Z,98840.31
2022-09-11T06:19:56.067Z,98845.41
2022-09-11T06:21:01.460Z,98847.25
2022-09-11T06:22:03.191Z,98847.81
2022-09-11T06:23:09.069Z,98851.88
2022-09-11T06:24:11.048Z,98849.44
2022-09-11T06:25:12.885Z,98855.59
2022-09-11T06:26:18.255Z,98858.25
2022-09-11T06:27:20.075Z,98858.03
2022-09-11T06:28:23.400Z,98863.34
2022-09-11T06:29:25.159Z,98856.16
2022-09-11T06:30:27.084Z,98860.47
2022-09-11T06:31:29.854Z,98859.44
2022-09-11T06:32:31.543Z,98854.09
2022-09-11T06:33:36.124Z,98862.91
2022-09-11T06:34:37.893Z,98863.72
2022-09-11T06:35:39.584Z,98866.16
2022-09-11T06:36:41.317Z,98859.19
2022-09-11T06:37:43.050Z,98857.34
2022-09-11T06:38:46.010Z,98858.97
2022-09-11T06:39:47.820Z,98856.06
2022-09-11T06:40:50.332Z,98856.88
2022-09-11T06:41:53.844Z,98855.00
2022-09-11T06:42:55.542Z,98852.09
2022-09-11T06:43:57.257Z,98859.28
2022-09-11T06:44:58.991Z,98861.97
2022-09-11T06:46:12.020Z,98857.78
2022-09-11T06:47:13.817Z,98857.19
2022-09-11T06:48:17.084Z,98860.69
2022-09-11T06:49:19.539Z,98858.84
2022-09-11T06:50:23.393Z,98859.41
2022-09-11T06:51:25.353Z,98858.38
2022-09-11T06:52:28.110Z,98867.75
2022-09-11T06:53:30.325Z,98864.28
2022-09-11T06:54:32.091Z,98866.69
2022-09-11T06:55:34.595Z,98866.47
2022-09-11T06:56:36.337Z,98862.97
2022-09-11T06:57:41.782Z,98866.22
2022-09-11T06:58:45.249Z,98867.63
2022-09-11T06:59:47.147Z,98870.31
2022-09-11T07:00:49.147Z,98870.06
2022-09-11T07:01:51.870Z,98862.88
2022-09-11T07:02:54.331Z,98863.69
2022-09-11T07:03:56.814Z,98864.25
2022-09-11T07:04:58.597Z,98872.81
2022-09-11T07:06:01.012Z,98863.19
2022-09-11T07:07:02.768Z,98862.97
2022-09-11T07:08:05.393Z,98864.56
2022-09-11T07:09:07.147Z,98866.00
2022-09-11T07:10:10.349Z,98871.09
2022-09-11T07:11:12.738Z,98865.75
2022-09-11T07:12:14.805Z,98868.97
2022-09-11T07:13:16.614Z,98866.88
2022-09-11T07:14:21.226Z,98870.13
2022-09-11T07:15:23.003Z,98869.31
2022-09-11T07:16:25.732Z,98870.72
2022-09-11T07:17:27.484Z,98873.16
2022-09-11T07:18:44.561Z,98876.19
2022-09-11T07:19:46.281Z,98878.03
2022-09-11T07:20:48.002Z,98879.09
2022-09-11T07:21:49.728Z,98871.88
2022-09-11T07:22:51.460Z,98873.75
2022-09-11T07:23:57.539Z,98883.94
2022-09-11T07:25:03.627Z,98884.53
2022-09-11T07:26:12.197Z,98883.72
2022-09-11T07:27:14.212Z,98884.75
2022-09-11T07:28:15.964Z,98886.38
2022-09-11T07:29:18.340Z,98879.19
2022-09-11T07:30:20.430Z,98882.91
2022-09-11T07:31:29.603Z,98877.69
2022-09-11T07:32:31.334Z,98889.16
2022-09-11T07:33:33.319Z,98879.53
2022-09-11T07:34:35.091Z,98889.75
2022-09-11T07:35:38.009Z,98885.22
2022-09-11T07:36:39.771Z,98888.69
2022-09-11T07:37:41.495Z,98888.44
2022-09-11T07:38:49.540Z,98893.09
2022-09-11T07:39:51.272Z,98887.75
2022-09-11T07:40:56.930Z,98892.03
2022-09-11T07:41:58.708Z,98893.19
2022-09-11T07:43:00.446Z,98896.66
2022-09-11T07:44:03.631Z,98898.03
2022-09-11T07:45:06.252Z,98892.47
2022-09-11T07:46:10.197Z,98898.16
2022-09-11T07:47:12.021Z,98897.66
2022-09-11T07:48:13.713Z,98903.31
2022-09-11T07:49:15.871Z,98902.50
2022-09-11T07:50:18.001Z,98901.81
2022-09-11T07:51:20.114Z,98900.75
2022-09-11T07:52:21.813Z,98909.34
2022-09-11T07:53:25.590Z,98901.91
2022-09-11T07:54:28.957Z,98903.31
2022-09-11T07:55:30.904Z,98905.72
2022-09-11T07:56:34.749Z,98900.72
2022-09-11T07:57:36.465Z,98911.72
2022-09-11T07:58:40.997Z,98912.06
2022-09-11T07:59:42.725Z,98903.56
2022-09-11T08:00:45.133Z,98914.56
2022-09-11T08:01:46.851Z,98910.38
2022-09-11T08:02:49.362Z,98907.00
2022-09-11T08:04:01.037Z,98910.34
2022-09-11T08:05:02.784Z,98912.53
2022-09-11T08:06:09.478Z,98910.44
2022-09-11T08:07:11.698Z,98909.13
2022-09-11T08:08:13.430Z,98912.16
2022-09-11T08:09:15.542Z,98907.59
2022-09-11T08:10:27.263Z,98914.31
2022-09-11T08:11:31.725Z,98914.66
2022-09-11T08:12:34.609Z,98920.34
2022-09-11T08:13:36.818Z,98914.75
2022-09-11T08:14:38.653Z,98922.28
2022-09-11T08:15:50.730Z,98920.97
2022-09-11T08:16:53.497Z,98918.88
2022-09-11T08:17:55.265Z,98918.88
2022-09-11T08:18:57.185Z,98924.56
2022-09-11T08:19:58.922Z,98920.06
2022-09-11T08:21:12.709Z,98920.97
2022-09-11T08:22:14.862Z,98920.22
2022-09-11T08:23:16.899Z,98918.16
2022-09-11T08:24:24.321Z,98917.91
2022-09-11T08:25:27.550Z,98918.44
2022-09-11T08:26:30.837Z,98917.91
2022-09-11T08:27:32.564Z,98923.56
2022-09-11T08:28:36.991Z,98923.56
2022-09-11T08:29:38.726Z,98921.44
2022-09-11T08:30:40.452Z,98916.09
2022-09-11T08:31:42.256Z,98925.72
2022-09-11T08:32:44.000Z,98921.44
2022-09-11T08:33:46.144Z,98918.25
2022-09-11T08:34:48.054Z,98923.16
2022-09-11T08:35:49.797Z,98927.22
2022-09-11T08:36:51.945Z,98916.28
2022-09-11T08:37:55.173Z,98920.91
2022-09-11T08:39:02.734Z,98921.47
2022-09-11T08:40:05.356Z,98917.22
2022-09-11T08:41:30.551Z,98916.56
2022-09-11T08:42:32.294Z,98925.91
2022-09-11T08:43:39.332Z,98932.63
2022-09-11T08:44:53.286Z,98928.38
2022-09-11T08:46:00.909Z,98928.38
2022-09-11T08:47:24.862Z,98933.81
2022-09-11T08:48:40.211Z,98928.47
2022-09-11T08:49:47.069Z,98924.16
2022-09-11T08:50:49.479Z,98934.63
2022-09-11T08:52:02.137Z,98933.31
2022-09-11T08:53:04.446Z,98933.31
2022-09-11T08:54:07.533Z,98926.91
2022-09-11T08:55:14.756Z,98938.75
2022-09-11T08:56:22.623Z,98936.63
2022-09-11T08:57:43.321Z,98937.25
2022-09-11T08:59:02.436Z,98940.50
2022-09-11T09:00:24.949Z,98939.78
2022-09-11T09:01:53.078Z,98936.38
2022-09-11T09:03:47.535Z,98942.41
2022-09-11T09:05:31.469Z,98944.31
2022-09-11T09:06:55.244Z,98944.88
2022-09-11T09:08:18.134Z,98942.53
2022-09-11T09:10:03.479Z,98948.47
2022-09-11T09:11:33.745Z,98952.22
2022-09-11T09:13:29.438Z,98948.59
2022-09-11T09:15:02.123Z,98943.75
2022-09-11T09:16:43.949Z,98960.94
2022-09-11T09:18:00.586Z,98955.78
2022-09-11T09:19:10.027Z,98952.78
2022-09-11T09:20:22.553Z,98952.53
2022-09-11T09:21:36.003Z,98955.47
2022-09-11T09:23:25.751Z,98952.09
2022-09-11T09:24:36.147Z,98949.38
2022-09-11T09:25:42.853Z,98954.16
2022-09-11T09:26:51.153Z,98952.31
2022-09-11T09:28:17.379Z,98952.91
2022-09-11T09:29:30.431Z,98959.31
2022-09-11T09:30:50.970Z,98954.59
2022-09-11T09:32:01.930Z,98950.84
2022-09-11T09:33:34.596Z,98945.56
2022-09-11T09:34:40.911Z,98940.72
2022-09-11T09:35:45.146Z,98944.81
2022-09-11T09:37:16.035Z,98946.59
2022-09-11T09:38:26.407Z,98941.28
2022-09-11T09:39:29.335Z,98947.53
2022-09-11T09:40:35.600Z,98947.53
2022-09-11T09:42:16.129Z,98951.41
2022-09-11T09:44:01.220Z,98946.38
2022-09-11T09:45:37.860Z,98946.38
2022-09-11T09:46:51.187Z,98944.78
2022-09-11T09:47:53.575Z,98942.06
2022-09-11T09:48:56.056Z,98945.81
2022-09-11T09:49:58.738Z,98943.94
2022-09-11T09:51:03.986Z,98958.44
2022-09-11T09:52:32.181Z,98956.06
2022-09-11T09:53:49.624Z,98953.09
2022-09-11T09:55:05.121Z,98954.97
2022-09-11T09:56:07.712Z,98949.63
2022-09-11T09:57:11.755Z,98948.88
2022-09-11T09:58:15.070Z,98950.75
2022-09-11T09:59:26.543Z,98953.50
2022-09-11T10:00:30.933Z,98943.03
2022-09-11T10:01:45.901Z,98941.75
2022-09-11T10:02:57.182Z,98941.53
2022-09-11T10:04:31.555Z,98938.91
2022-09-11T10:05:54.573Z,98943.31
2022-09-11T10:07:14.130Z,98946.59
2022-09-11T10:08:37.225Z,98953.38
2022-09-11T10:09:49.805Z,98950.94
2022-09-11T10:11:04.717Z,98946.69
2022-09-11T10:12:16.434Z,98948.09
2022-09-11T10:13:24.989Z,98946.25
2022-09-11T10:14:49.723Z,98947.06
2022-09-11T10:15:50.321Z,98946.81
2022-09-11T10:16:53.769Z,98942.53
2022-09-11T10:18:37.582Z,98944.16
2022-09-11T10:19:43.369Z,98947.13
2022-09-11T10:20:45.658Z,98939.06
2022-09-11T10:21:47.369Z,98946.06
2022-09-11T10:22:50.990Z,98943.41
2022-09-11T10:24:02.723Z,98943.44
2022-09-11T10:25:09.256Z,98937.75
2022-09-11T10:26:45.967Z,98939.09
2022-09-11T10:28:17.340Z,98938.81
2022-09-11T10:29:26.371Z,98940.44
2022-09-11T10:30:41.569Z,98939.34
2022-09-11T10:31:51.358Z,98941.53
2022-09-11T10:32:53.343Z,98936.13
2022-09-11T10:33:59.611Z,98936.38
2022-09-11T10:35:08.667Z,98939.84
2022-09-11T10:36:11.915Z,98938.47
2022-09-11T10:37:16.229Z,98941.44
2022-09-11T10:38:20.068Z,98934.13
2022-09-11T10:39:25.938Z,98934.91
2022-09-11T10:40:27.672Z,98928.97
2022-09-11T10:41:34.708Z,98919.78
2022-09-11T10:42:37.866Z,98925.41
2022-09-11T10:44:03.137Z,98931.25
2022-09-11T10:45:16.866Z,98931.50
2022-09-11T10:46:29.648Z,98922.25
2022-09-11T10:47:33.120Z,98931.72
2022-09-11T10:48:36.663Z,98931.16
2022-09-11T10:49:38.458Z,98928.41
2022-09-11T10:50:40.229Z,98930.00
2022-09-11T10:51:57.317Z,98925.34
2022-09-11T10:53:20.100Z,98919.97
2022-09-11T10:55:00.610Z,98923.63
2022-09-11T10:56:05.915Z,98922.53
2022-09-11T10:57:42.134Z,98921.66
2022-09-11T10:58:54.924Z,98915.78
2022-09-11T11:00:23.477Z,98918.19
2022-09-11T11:01:26.127Z,98924.72
2022-09-11T11:02:36.118Z,98918.28
2022-09-11T11:03:38.173Z,98922.34
2022-09-11T11:04:40.005Z,98922.91
2022-09-11T11:06:34.901Z,98921.19
2022-09-11T11:08:02.111Z,98920.91
2022-09-11T11:09:39.101Z,98924.13
2022-09-11T11:11:05.240Z,98910.94
2022-09-11T11:12:33.025Z,98920.63
2022-09-11T11:14:14.433Z,98920.09
2022-09-11T11:16:04.054Z,98918.94
2022-09-11T11:17:43.320Z,98913.81
2022-09-11T11:19:11.938Z,98914.59
2022-09-11T11:20:47.461Z,98912.88
2022-09-11T11:22:23.983Z,98914.69
2022-09-11T11:23:56.677Z,98913.59
2022-09-11T11:25:27.432Z,98915.44
2022-09-11T11:26:59.552Z,98911.66
2022-09-11T11:28:29.295Z,98911.06
2022-09-11T11:30:00.482Z,98904.56
2022-09-11T11:31:34.176Z,98904.28
2022-09-11T11:33:09.311Z,98916.38
2022-09-11T11:34:46.877Z,98913.03
2022-09-11T11:36:04.078Z,98906.59
2022-09-11T11:37:23.087Z,98913.38
2022-09-11T11:38:40.984Z,98910.09
2022-09-11T11:40:18.627Z,98913.59
2022-09-11T11:41:32.173Z,98919.00
2022-09-11T11:42:53.990Z,98918.00
2022-09-11T11:44:03.303Z,98915.03
2022-09-11T11:45:32.257Z,98918.78
2022-09-11T11:46:45.937Z,98920.22
2022-09-11T11:47:51.327Z,98924.88
2022-09-11T11:49:04.634Z,98924.06
2022-09-11T11:50:27.422Z,98925.44
2022-09-11T11:51:47.427Z,98928.94
2022-09-11T11:53:31.730Z,98931.91
2022-09-11T11:54:52.300Z,98932.25
2022-09-11T11:56:15.963Z,98930.09
2022-09-11T11:57:26.072Z,98930.44
2022-09-11T11:58:47.156Z,98933.16
2022-09-11T12:00:09.684Z,98932.94
2022-09-11T12:01:38.398Z,98934.06
2022-09-11T12:03:01.950Z,98936.59
2022-09-11T12:04:59.182Z,98932.00
2022-09-11T12:06:01.019Z,98938.84
2022-09-11T12:07:04.691Z,98939.47
2022-09-11T12:08:16.588Z,98939.47
2022-09-11T12:09:19.082Z,98941.97
2022-09-11T12:10:36.164Z,98938.50
2022-09-11T12:11:39.149Z,98942.56
2022-09-11T12:12:53.492Z,98944.50
2022-09-11T12:13:56.028Z,98932.69
2022-09-11T12:15:07.842Z,98942.69
2022-09-11T12:16:29.062Z,98942.44
2022-09-11T12:17:34.769Z,98945.94
2022-09-11T12:18:38.369Z,98953.25
2022-09-11T12:20:12.176Z,98946.50
2022-09-11T12:21:22.763Z,98947.59
2022-09-11T12:22:38.247Z,98945.72
2022-09-11T12:23:47.143Z,98946.81
2022-09-11T12:24:52.434Z,98942.25
2022-09-11T12:26:10.523Z,98937.97
2022-09-11T12:27:33.258Z,98940.38
2022-09-11T12:28:35.717Z,98944.72
2022-09-11T12:29:42.442Z,98943.38
2022-09-11T12:31:11.285Z,98942.03
2022-09-11T12:32:16.386Z,98938.81
2022-09-11T12:33:43.403Z,98939.88
2022-09-11T12:34:45.267Z,98942.06
2022-09-11T12:35:53.423Z,98937.75
2022-09-11T12:37:12.091Z,98936.13
2022-09-11T12:38:37.958Z,98933.41
2022-09-11T12:39:53.079Z,98931.50
2022-09-11T12:41:07.425Z,98923.97
2022-09-11T12:42:25.232Z,98925.56
2022-09-11T12:43:37.810Z,98914.53
2022-09-11T12:44:48.632Z,98919.66
2022-09-11T12:45:50.448Z,98923.41
2022-09-11T12:46:54.921Z,98924.19
2022-09-11T12:48:25.894Z,98921.47
2022-09-11T12:49:28.087Z,98931.72
2022-09-11T12:50:30.014Z,98923.38
2022-09-11T12:51:38.044Z,98926.34
2022-09-11T12:52:45.645Z,98922.53
2022-09-11T12:53:52.020Z,98926.56
2022-09-11T12:54:54.466Z,98918.75
2022-09-11T12:56:07.386Z,98921.41
2022-09-11T12:57:27.748Z,98917.88
2022-09-11T12:58:41.829Z,98916.28
2022-09-11T12:59:53.187Z,98917.06
2022-09-11T13:01:30.752Z,98912.44
2022-09-11T13:02:44.459Z,98920.53
2022-09-11T13:04:27.349Z,98906.75
2022-09-11T13:05:38.008Z,98917.81
2022-09-11T13:06:54.655Z,98907.56
2022-09-11T13:08:03.624Z,98911.06
2022-09-11T13:09:07.458Z,98908.34
2022-09-11T13:10:33.349Z,98906.69
2022-09-11T13:11:45.435Z,98910.19
2022-09-11T13:12:55.728Z,98909.91
2022-09-11T13:13:57.496Z,98913.13
2022-09-11T13:15:00.096Z,98908.81
2022-09-11T13:16:25.907Z,98904.44
2022-09-11T13:17:46.645Z,98900.91
2022-09-11T13:18:48.486Z,98909.28
2022-09-11T13:19:50.839Z,98907.38
2022-09-11T13:21:00.546Z,98904.91
2022-09-11T13:22:19.702Z,98907.63
2022-09-11T13:23:21.562Z,98908.97
2022-09-11T13:24:28.609Z,98908.97
2022-09-11T13:25:32.630Z,98905.47
2022-09-11T13:26:35.057Z,98898.47
2022-09-11T13:27:39.427Z,98904.66
2022-09-11T13:28:49.262Z,98902.19
2022-09-11T13:29:54.872Z,98902.47
2022-09-11T13:31:04.980Z,98898.97
2022-09-11T13:32:13.831Z,98899.25
2022-09-11T13:33:23.931Z,98899.78
2022-09-11T13:34:29.514Z,98893.28
2022-09-11T13:35:32.421Z,98894.91